Time;durP1;ratioP1;P1;durP2;ratioP2;P2;SDS_P1;SDS_P2;PMS_P1;PMS_P2;Temp;Humidity;BMP_temperature;BMP_pressure;BME280_temperature;BME280_humidity;BME280_pressure;Samples;Min_cycle;Max_cycle;Signal;HPM_P1;HPM_P2
2023/02/02 00:25:49;;;;;;;23.90;2.95;;;9.60;99.90;;;;;;5074939;23;20223;-95
2023/02/02 00:28:08;;;;;;;17.33;2.65;;;9.60;99.90;;;;;;5051008;23;20181;-95
2023/02/02 00:33:25;;;;;;;21.27;3.05;;;9.60;99.90;;;;;;4929399;24;20216;-93
2023/02/02 00:36:24;;;;;;;18.83;2.95;;;9.60;99.90;;;;;;4978196;23;20611;-94
2023/02/02 00:38:27;;;;;;;26.63;3.58;;;9.70;99.90;;;;;;5024800;23;20181;-95
2023/02/02 00:41:17;;;;;;;20.90;3.55;;;9.70;99.90;;;;;;5001282;23;20286;-94
2023/02/02 00:45:14;;;;;;;15.93;2.22;;;9.80;99.90;;;;;;4954334;23;20168;-94
2023/02/02 00:46:35;;;;;;;;;;;;;;;;;;;;;
2023/02/02 00:49:01;;;;;;;23.63;3.25;;;9.70;99.90;;;;;;5003694;23;20212;-95
2023/02/02 00:51:12;;;;;;;18.77;2.97;;;9.70;99.90;;;;;;5006326;23;20159;-94
2023/02/02 00:53:23;;;;;;;22.92;3.45;;;9.50;99.90;;;;;;5026807;23;20170;-95
2023/02/02 00:55:28;;;;;;;28.77;4.07;;;9.70;99.90;;;;;;5029229;23;20629;-94
2023/02/02 00:57:44;;;;;;;23.20;2.75;;;9.60;99.90;;;;;;5027117;23;20198;-94
2023/02/02 00:59:44;;;;;;;24.80;3.08;;;9.50;99.90;;;;;;5025346;23;20194;-94
2023/02/02 01:02:10;;;;;;;23.48;3.38;;;9.40;99.90;;;;;;5002654;23;20152;-94
2023/02/02 01:04:50;;;;;;;;;;;;;;;;;;;;;
2023/02/02 01:07:20;;;;;;;22.65;3.22;;;9.70;99.90;;;;;;5053533;23;20218;-95
2023/02/02 01:09:28;;;;;;;16.60;2.42;;;9.60;99.90;;;;;;5026719;23;20135;-94
2023/02/02 01:11:52;;;;;;;18.48;2.25;;;9.70;99.90;;;;;;5002387;23;20552;-94
2023/02/02 01:14:52;;;;;;;;;;;;;;;;;;;;;
2023/02/02 01:16:53;;;;;;;20.42;2.92;;;9.40;99.90;;;;;;5042224;23;20175;-93
2023/02/02 01:19:35;;;;;;;28.92;3.40;;;9.40;99.90;;;;;;5002196;23;20219;-93
2023/02/02 01:22:05;;;;;;;22.45;3.63;;;9.50;99.90;;;;;;5026855;23;20174;-95
2023/02/02 01:24:47;;;;;;;19.85;2.67;;;9.40;99.90;;;;;;5029778;23;20663;-94
2023/02/02 01:26:58;;;;;;;18.75;2.70;;;9.40;99.90;;;;;;5025925;23;20163;-95
2023/02/02 01:29:34;;;;;;;20.02;2.78;;;9.50;99.90;;;;;;5003288;23;20175;-94
2023/02/02 01:31:38;;;;;;;22.92;2.90;;;9.50;99.90;;;;;;5004961;23;20164;-95
2023/02/02 01:33:46;;;;;;;19.98;2.83;;;9.60;99.90;;;;;;5001105;23;20163;-95
2023/02/02 01:36:23;;;;;;;21.25;3.10;;;9.70;99.90;;;;;;5026893;23;20214;-94
2023/02/02 01:38:36;;;;;;;25.45;3.80;;;9.70;99.90;;;;;;5026725;23;20215;-95
2023/02/02 01:41:13;;;;;;;21.92;3.83;;;9.80;99.90;;;;;;5003214;23;20215;-94
2023/02/02 01:43:51;;;;;;;27.52;3.40;;;9.70;99.90;;;;;;5005076;23;20160;-95
2023/02/02 01:46:03;;;;;;;19.70;2.65;;;9.60;99.90;;;;;;5027465;23;20158;-95
2023/02/02 01:48:44;;;;;;;18.90;2.40;;;9.50;99.90;;;;;;5027473;23;20234;-94
2023/02/02 01:53:12;;;;;;;14.95;3.10;;;9.50;99.90;;;;;;5022575;23;20167;-95
2023/02/02 01:55:29;;;;;;;21.80;2.38;;;9.70;99.90;;;;;;5000897;23;20171;-94
2023/02/02 01:58:18;;;;;;;21.63;2.70;;;9.70;99.90;;;;;;5027837;23;20182;-94
2023/02/02 02:00:34;;;;;;;20.27;3.25;;;9.60;99.90;;;;;;5053797;23;20198;-93
2023/02/02 02:02:41;;;;;;;18.42;2.95;;;9.60;99.90;;;;;;5009672;23;20155;-93
2023/02/02 02:07:31;;;;;;;25.45;2.88;;;9.60;99.90;;;;;;5079545;23;20564;-96
2023/02/02 02:09:54;;;;;;;17.58;2.78;;;9.60;99.90;;;;;;5033541;23;20158;-95
2023/02/02 02:12:00;;;;;;;20.35;2.30;;;9.70;99.90;;;;;;5032370;23;20219;-94
2023/02/02 02:17:41;;;;;;;27.83;3.15;;;9.70;99.90;;;;;;5017141;23;20682;-95
2023/02/02 02:29:34;;;;;;;14.40;2.67;;;9.50;99.90;;;;;;5053881;23;20192;-93
2023/02/02 02:32:01;;;;;;;21.17;3.05;;;9.30;99.90;;;;;;4985537;23;20196;-95
2023/02/02 02:34:49;;;;;;;21.88;2.83;;;9.20;99.90;;;;;;5011769;23;20155;-95
2023/02/02 02:40:19;;;;;;;21.23;2.28;;;9.30;99.90;;;;;;5087728;23;20212;-94
2023/02/02 02:42:58;;;;;;;22.40;2.55;;;9.40;99.90;;;;;;5059617;23;20195;-93
2023/02/02 02:45:23;;;;;;;23.40;2.78;;;9.30;99.90;;;;;;5055884;23;20162;-94
2023/02/02 02:50:31;;;;;;;20.05;3.08;;;9.60;99.90;;;;;;4981198;23;20711;-94
2023/02/02 02:53:17;;;;;;;16.10;2.70;;;9.50;99.90;;;;;;4987420;23;20167;-94
2023/02/02 02:55:55;;;;;;;17.45;2.83;;;9.50;99.90;;;;;;5035804;23;20561;-93
2023/02/02 02:59:00;;;;;;;;;;;;;;;;;;;;;
2023/02/02 03:01:33;;;;;;;17.33;2.22;;;9.40;99.90;;;;;;5030451;23;20225;-93
2023/02/02 03:03:56;;;;;;;21.45;2.80;;;9.50;99.90;;;;;;5057678;23;20176;-94
2023/02/02 03:06:18;;;;;;;14.83;2.43;;;9.50;99.90;;;;;;5036755;23;20139;-92
2023/02/02 03:08:49;;;;;;;14.50;2.78;;;9.60;99.90;;;;;;5058409;23;20253;-94
2023/02/02 03:11:13;;;;;;;27.27;2.95;;;9.40;99.90;;;;;;5029603;23;20151;-94
2023/02/02 03:13:17;;;;;;;22.33;2.45;;;9.30;99.90;;;;;;5050543;23;20202;-94
2023/02/02 03:15:54;;;;;;;17.75;2.65;;;9.30;99.90;;;;;;5027745;23;20174;-95
2023/02/02 03:18:07;;;;;;;18.45;2.78;;;9.40;99.90;;;;;;5051157;23;20202;-94
2023/02/02 03:20:25;;;;;;;23.55;3.17;;;9.30;99.90;;;;;;5051260;23;20213;-94
2023/02/02 03:22:41;;;;;;;;;;;;;;;;;;;;;
2023/02/02 03:25:35;;;;;;;25.00;2.88;;;9.60;99.90;;;;;;5074303;23;20153;-95
2023/02/02 03:27:47;;;;;;;20.98;1.95;;;9.50;99.90;;;;;;4992841;23;20178;-94
2023/02/02 03:30:14;;;;;;;14.82;2.47;;;9.50;99.90;;;;;;5030304;23;20579;-94
2023/02/02 03:32:28;;;;;;;19.58;2.53;;;9.50;99.90;;;;;;5050453;23;20224;-95
2023/02/02 03:35:06;;;;;;;27.52;2.88;;;9.50;99.90;;;;;;5052721;23;20162;-94
2023/02/02 03:37:32;;;;;;;25.90;2.90;;;9.40;99.90;;;;;;5026376;23;20461;-95
2023/02/02 03:40:01;;;;;;;20.55;2.58;;;9.40;99.90;;;;;;5049843;23;20202;-93
2023/02/02 03:42:46;;;;;;;;;;;;;;;;;;;;;
2023/02/02 03:45:07;;;;;;;15.60;2.58;;;9.50;99.90;;;;;;5051594;23;20170;-94
2023/02/02 03:47:13;;;;;;;22.20;3.20;;;9.50;99.90;;;;;;5026028;23;20234;-95
2023/02/02 03:49:28;;;;;;;15.23;2.30;;;9.50;99.90;;;;;;5051433;23;20166;-95
2023/02/02 03:52:21;;;;;;;25.67;3.00;;;9.50;99.90;;;;;;5054877;23;20177;-95
2023/02/02 03:57:34;;;;;;;23.30;2.80;;;9.50;99.90;;;;;;5012664;23;20330;-94
2023/02/02 04:00:39;;;;;;;29.15;2.58;;;9.50;99.90;;;;;;5080757;23;20241;-94
2023/02/02 04:02:52;;;;;;;14.75;2.28;;;9.50;99.90;;;;;;5026121;23;20199;-94
2023/02/02 04:04:53;;;;;;;22.83;3.10;;;9.50;99.90;;;;;;5027363;23;20163;-95
2023/02/02 04:07:13;;;;;;;22.00;2.67;;;9.60;99.90;;;;;;5049109;23;20158;-95
2023/02/02 04:09:14;;;;;;;16.65;2.00;;;9.50;99.90;;;;;;5051821;23;20238;-94
2023/02/02 04:11:25;;;;;;;22.67;2.53;;;9.50;99.90;;;;;;5027071;23;20163;-95
2023/02/02 04:13:55;;;;;;;12.45;2.28;;;9.50;99.90;;;;;;5049268;23;20186;-94
2023/02/02 04:16:19;;;;;;;17.98;2.40;;;9.40;99.90;;;;;;5050068;23;20162;-96
2023/02/02 04:18:48;;;;;;;16.85;3.25;;;9.40;99.90;;;;;;5050726;23;20174;-95
2023/02/02 04:21:10;;;;;;;18.60;2.45;;;9.20;99.90;;;;;;5051006;23;20181;-94
2023/02/02 04:23:18;;;;;;;21.70;2.47;;;9.30;99.90;;;;;;5047813;23;20167;-96
2023/02/02 04:25:30;;;;;;;19.35;2.67;;;9.40;99.90;;;;;;5050378;23;20158;-95
2023/02/02 04:27:59;;;;;;;27.70;3.10;;;9.40;99.90;;;;;;5049045;23;20226;-94
2023/02/02 04:30:18;;;;;;;20.75;2.63;;;9.30;99.90;;;;;;5026503;23;20147;-94
2023/02/02 04:32:51;;;;;;;13.60;2.20;;;9.10;99.90;;;;;;5031155;23;20241;-94
2023/02/02 04:35:14;;;;;;;15.93;2.30;;;9.00;99.90;;;;;;5026968;23;20178;-94
2023/02/02 04:37:15;;;;;;;21.77;3.15;;;9.00;99.90;;;;;;5047237;23;20587;-94
2023/02/02 04:42:34;;;;;;;18.13;2.55;;;9.20;99.90;;;;;;5038333;23;20604;-94
2023/02/02 04:44:53;;;;;;;13.88;2.25;;;9.00;99.90;;;;;;5024903;23;20521;-95
2023/02/02 04:47:42;;;;;;;;;;;;;;;;;;;;;
2023/02/02 04:49:57;;;;;;;;;;;;;;;;;;;;;
2023/02/02 04:52:28;;;;;;;14.25;2.47;;;9.10;99.90;;;;;;5063735;23;20493;-94
2023/02/02 04:55:00;;;;;;;19.15;2.47;;;8.90;99.90;;;;;;5048461;23;20170;-94
2023/02/02 04:57:21;;;;;;;;;;;;;;;;;;;;;
2023/02/02 04:59:51;;;;;;;;;;;;;;;;;;;;;
2023/02/02 05:05:20;;;;;;;18.17;2.33;;;8.90;99.90;;;;;;4979553;23;20160;-95
2023/02/02 05:08:08;;;;;;;15.70;2.75;;;8.90;99.90;;;;;;4955638;24;20201;-94
2023/02/02 05:10:16;;;;;;;24.48;2.95;;;8.90;99.90;;;;;;4947332;24;20171;-95
2023/02/02 05:12:27;;;;;;;14.93;2.23;;;8.90;99.90;;;;;;4933358;24;20181;-94
2023/02/02 05:14:50;;;;;;;22.83;2.38;;;8.80;99.90;;;;;;4975563;23;20155;-95
2023/02/02 05:17:04;;;;;;;23.35;3.40;;;8.80;99.90;;;;;;5051754;23;20154;-95
2023/02/02 05:19:17;;;;;;;16.50;2.88;;;9.00;99.90;;;;;;5051650;23;20186;-95
2023/02/02 05:22:26;;;;;;;;;;;;;;;;;;;;;
2023/02/02 05:28:10;;;;;;;21.90;2.55;;;8.80;99.90;;;;;;5070297;23;20178;-95
2023/02/02 05:30:50;;;;;;;19.80;2.90;;;8.80;99.90;;;;;;5025605;23;20614;-94
2023/02/02 05:33:31;;;;;;;;;;;;;;;;;;;;;
2023/02/02 05:35:51;;;;;;;16.52;2.25;;;8.70;99.90;;;;;;5073679;23;20165;-93
2023/02/02 05:38:07;;;;;;;13.57;2.28;;;8.50;99.90;;;;;;5048547;23;20175;-96
2023/02/02 05:40:42;;;;;;;16.70;2.10;;;8.70;99.90;;;;;;5049408;23;20193;-95
2023/02/02 05:42:59;;;;;;;22.20;3.10;;;8.70;99.90;;;;;;4956091;24;20161;-93
2023/02/02 05:45:25;;;;;;;15.38;2.42;;;8.60;99.90;;;;;;4979532;23;20778;-94
2023/02/02 05:48:17;;;;;;;17.77;2.63;;;8.70;99.90;;;;;;5054926;23;20178;-94
2023/02/02 05:50:28;;;;;;;21.03;2.60;;;8.80;99.90;;;;;;5052979;23;20229;-93
2023/02/02 05:52:39;;;;;;;18.40;2.30;;;9.00;99.90;;;;;;5051439;23;20157;-94
2023/02/02 05:55:17;;;;;;;;;;;;;;;;;;;;;
2023/02/02 05:57:44;;;;;;;11.20;2.23;;;8.70;99.90;;;;;;5050053;23;20173;-95
2023/02/02 06:00:17;;;;;;;19.17;2.78;;;8.70;99.90;;;;;;5048739;23;20341;-94
2023/02/02 06:02:23;;;;;;;21.88;2.83;;;8.70;99.90;;;;;;5023023;23;20151;-94
2023/02/02 06:04:34;;;;;;;17.33;2.55;;;8.70;99.90;;;;;;5048089;23;20158;-94
2023/02/02 06:06:37;;;;;;;20.23;2.78;;;8.70;99.90;;;;;;5047504;23;20169;-95
2023/02/02 06:09:58;;;;;;;22.70;2.60;;;8.90;99.90;;;;;;5026081;23;20162;-95
2023/02/02 06:12:46;;;;;;;19.23;3.00;;;8.60;99.90;;;;;;4994715;23;20226;-94
2023/02/02 06:14:46;;;;;;;16.67;2.63;;;8.50;99.90;;;;;;5006373;23;20160;-94
2023/02/02 06:16:51;;;;;;;20.47;2.67;;;8.80;99.90;;;;;;5044920;23;20178;-95
2023/02/02 06:18:52;;;;;;;18.07;2.60;;;8.90;99.90;;;;;;5044693;23;20174;-93
2023/02/02 06:23:26;;;;;;;25.48;3.03;;;8.80;99.90;;;;;;5053883;23;20162;-94
2023/02/02 06:25:27;;;;;;;17.17;3.00;;;8.70;99.90;;;;;;5044784;23;20154;-93
2023/02/02 06:27:35;;;;;;;20.40;2.58;;;8.90;99.90;;;;;;5045005;23;20154;-94
2023/02/02 06:29:39;;;;;;;13.80;2.30;;;9.10;99.90;;;;;;5021470;23;20178;-94
2023/02/02 06:31:40;;;;;;;18.48;2.92;;;9.00;99.90;;;;;;5021443;23;20610;-94
2023/02/02 06:33:41;;;;;;;15.80;2.60;;;9.00;99.90;;;;;;5045179;23;20166;-92
2023/02/02 06:35:42;;;;;;;16.77;2.35;;;9.00;99.90;;;;;;5021129;23;20551;-94
2023/02/02 06:37:43;;;;;;;17.33;3.03;;;8.80;99.90;;;;;;5044682;23;20238;-94
2023/02/02 06:39:46;;;;;;;12.13;2.67;;;8.70;99.90;;;;;;5045092;23;20190;-95
2023/02/02 06:41:56;;;;;;;21.48;3.10;;;8.80;99.90;;;;;;5022153;23;20147;-93
2023/02/02 06:44:00;;;;;;;27.70;2.97;;;8.90;99.90;;;;;;5044811;23;20195;-93
2023/02/02 06:46:01;;;;;;;12.43;2.20;;;8.90;99.90;;;;;;5045106;23;20471;-95
2023/02/02 06:48:20;;;;;;;16.57;2.30;;;8.80;99.90;;;;;;5045285;23;20214;-94
2023/02/02 06:50:21;;;;;;;17.98;1.92;;;8.70;99.90;;;;;;5044880;23;20158;-93
2023/02/02 06:52:23;;;;;;;23.30;3.30;;;8.70;99.90;;;;;;5021234;23;20280;-95
2023/02/02 06:54:24;;;;;;;21.77;3.20;;;8.80;99.90;;;;;;5045345;23;20150;-94
2023/02/02 06:56:25;;;;;;;17.05;2.45;;;8.80;99.90;;;;;;5044977;23;20154;-94
2023/02/02 06:58:32;;;;;;;11.98;1.92;;;8.80;99.90;;;;;;5044974;23;20174;-95
2023/02/02 07:00:43;;;;;;;23.87;5.33;;;8.70;99.90;;;;;;5046746;23;20189;-94
2023/02/02 07:02:46;;;;;;;29.43;13.53;;;8.70;99.90;;;;;;5044899;23;20154;-93
2023/02/02 07:04:59;;;;;;;11.48;2.25;;;8.60;99.90;;;;;;5044900;23;20248;-96
2023/02/02 07:07:05;;;;;;;16.80;5.22;;;8.70;99.90;;;;;;5044700;23;20146;-94
2023/02/02 07:09:15;;;;;;;28.47;15.07;;;8.60;99.90;;;;;;5044507;23;20201;-94
2023/02/02 07:11:27;;;;;;;22.23;7.25;;;8.60;99.90;;;;;;5044846;23;20158;-93
2023/02/02 07:13:30;;;;;;;38.05;13.55;;;8.70;99.90;;;;;;5045253;23;20189;-94
2023/02/02 07:15:37;;;;;;;69.85;29.08;;;8.80;99.90;;;;;;4997538;23;20162;-96
2023/02/02 07:17:40;;;;;;;75.10;34.88;;;8.70;99.90;;;;;;5044433;23;20212;-94
2023/02/02 07:19:41;;;;;;;42.72;21.70;;;8.50;99.90;;;;;;5045869;23;20186;-95
2023/02/02 07:21:44;;;;;;;51.00;21.10;;;8.60;99.90;;;;;;5044839;23;20151;-94
2023/02/02 07:23:56;;;;;;;30.15;9.48;;;8.70;99.90;;;;;;5045221;23;20185;-94
2023/02/02 07:26:09;;;;;;;19.27;6.57;;;8.70;99.90;;;;;;5046781;23;20161;-93
2023/02/02 07:28:33;;;;;;;30.52;4.25;;;8.80;99.90;;;;;;5044481;23;20633;-94
2023/02/02 07:31:21;;;;;;;15.38;2.83;;;8.90;99.90;;;;;;5048437;23;20163;-94
2023/02/02 07:33:25;;;;;;;24.77;6.05;;;8.90;99.90;;;;;;5044844;23;20233;-95
2023/02/02 07:35:54;;;;;;;15.25;3.28;;;9.00;99.90;;;;;;5045037;23;20253;-94
2023/02/02 07:38:05;;;;;;;23.13;4.60;;;8.90;99.90;;;;;;5045245;23;20244;-94
2023/02/02 07:40:14;;;;;;;27.35;8.38;;;9.00;99.90;;;;;;5045089;23;20634;-94
2023/02/02 07:42:15;;;;;;;14.50;2.83;;;9.00;99.90;;;;;;5021192;23;20159;-95
2023/02/02 07:44:16;;;;;;;14.55;3.10;;;9.00;99.90;;;;;;5019832;23;20163;-94
2023/02/02 07:46:18;;;;;;;21.92;3.38;;;9.00;99.90;;;;;;5044839;23;20166;-93
2023/02/02 07:48:28;;;;;;;14.55;2.45;;;9.00;99.90;;;;;;5021073;23;20182;-95
2023/02/02 07:50:53;;;;;;;30.98;15.68;;;9.20;99.90;;;;;;5030588;23;20306;-94
2023/02/02 07:53:00;;;;;;;15.10;4.73;;;9.10;99.90;;;;;;5021496;23;20167;-95
2023/02/02 07:55:01;;;;;;;15.70;4.22;;;9.10;99.90;;;;;;5044902;23;20159;-93
2023/02/02 07:57:43;;;;;;;18.17;2.50;;;9.20;99.90;;;;;;5044608;23;20218;-94
2023/02/02 07:59:44;;;;;;;14.70;3.77;;;9.20;99.90;;;;;;5070075;23;20197;-95
2023/02/02 08:02:02;;;;;;;13.15;2.83;;;9.10;99.90;;;;;;5046222;23;20154;-94
2023/02/02 08:04:03;;;;;;;15.23;2.53;;;9.00;99.90;;;;;;5046006;23;20159;-94
2023/02/02 08:06:17;;;;;;;20.08;4.63;;;9.10;99.90;;;;;;5047116;23;20154;-95
2023/02/02 08:08:23;;;;;;;26.02;3.45;;;9.10;99.90;;;;;;5045920;23;20522;-94
2023/02/02 08:10:26;;;;;;;16.92;3.50;;;9.30;99.90;;;;;;5046042;23;20158;-93
2023/02/02 08:12:38;;;;;;;17.42;2.50;;;9.10;99.90;;;;;;4998372;23;20168;-93
2023/02/02 08:14:42;;;;;;;16.30;3.13;;;9.20;99.90;;;;;;4999717;23;20178;-94
2023/02/02 08:16:43;;;;;;;19.90;4.72;;;9.20;99.90;;;;;;5022100;23;20237;-94
2023/02/02 08:18:55;;;;;;;11.45;2.28;;;9.20;99.90;;;;;;5022136;23;20622;-93
2023/02/02 08:21:03;;;;;;;13.00;3.75;;;9.30;99.90;;;;;;5070486;23;20253;-94
2023/02/02 08:23:14;;;;;;;;;;;;;;;;;;;;;
2023/02/02 08:25:20;;;;;;;12.43;2.72;;;9.40;99.90;;;;;;5070566;23;20240;-95
2023/02/02 08:27:26;;;;;;;17.33;2.58;;;9.40;99.90;;;;;;5045841;23;20154;-95
2023/02/02 08:29:29;;;;;;;12.98;2.53;;;9.50;99.90;;;;;;5045896;23;20150;-95
2023/02/02 08:31:40;;;;;;;13.73;3.40;;;9.40;99.90;;;;;;5022539;23;20186;-94
2023/02/02 08:33:53;;;;;;;18.15;3.10;;;9.20;99.90;;;;;;5021949;23;20157;-94
2023/02/02 08:36:14;;;;;;;24.83;7.15;;;9.40;99.90;;;;;;5045758;23;20161;-95
2023/02/02 08:38:17;;;;;;;13.20;1.85;;;9.40;99.90;;;;;;5045323;23;20174;-93
2023/02/02 08:40:32;;;;;;;15.00;2.40;;;9.50;99.90;;;;;;5045608;23;20200;-94
2023/02/02 08:42:32;;;;;;;18.88;4.60;;;9.60;99.90;;;;;;5047399;23;20194;-94
2023/02/02 08:44:35;;;;;;;11.27;2.10;;;9.70;99.90;;;;;;5022204;23;20159;-92
2023/02/02 08:46:36;;;;;;;13.18;3.50;;;9.70;99.90;;;;;;5070071;23;20158;-93
2023/02/02 08:48:37;;;;;;;11.93;3.60;;;9.50;99.90;;;;;;5021796;23;20178;-94
2023/02/02 08:50:38;;;;;;;17.60;2.40;;;9.60;99.90;;;;;;5021647;23;20586;-93
2023/02/02 08:52:42;;;;;;;11.70;2.63;;;9.50;99.90;;;;;;4998764;23;20183;-94
2023/02/02 08:54:42;;;;;;;10.45;1.85;;;9.70;99.90;;;;;;5022946;23;20159;-94
2023/02/02 08:56:45;;;;;;;11.82;3.13;;;9.70;99.90;;;;;;5029513;23;20163;-93
2023/02/02 08:58:50;;;;;;;21.98;4.35;;;9.80;99.90;;;;;;4998044;23;20176;-93
2023/02/02 09:00:51;;;;;;;16.00;2.50;;;9.70;99.90;;;;;;5021699;23;20194;-94
2023/02/02 09:02:51;;;;;;;12.88;2.78;;;9.70;99.90;;;;;;5021764;23;20155;-93
2023/02/02 09:04:52;;;;;;;14.13;2.42;;;9.60;99.90;;;;;;4998221;23;20595;-93
2023/02/02 09:06:53;;;;;;;12.32;1.85;;;9.60;99.90;;;;;;4997877;23;20156;-94
2023/02/02 09:08:54;;;;;;;16.17;2.33;;;9.70;99.90;;;;;;5021784;23;20179;-94
2023/02/02 09:10:54;;;;;;;16.30;4.47;;;9.70;99.90;;;;;;5021239;23;20243;-93
2023/02/02 09:12:55;;;;;;;17.23;2.67;;;9.90;99.90;;;;;;4997903;23;20155;-94
2023/02/02 09:14:56;;;;;;;19.23;4.47;;;9.80;99.90;;;;;;4997792;23;20627;-92
2023/02/02 09:16:56;;;;;;;19.70;2.22;;;9.90;99.90;;;;;;4998003;23;20170;-93
2023/02/02 09:18:57;;;;;;;20.80;7.43;;;10.10;99.90;;;;;;4997832;23;20180;-93
2023/02/02 09:21:00;;;;;;;16.05;2.65;;;10.10;99.90;;;;;;5021682;23;20182;-94
2023/02/02 09:23:01;;;;;;;12.25;1.98;;;10.20;99.90;;;;;;4998316;23;20496;-94
2023/02/02 09:25:01;;;;;;;13.15;2.13;;;10.30;99.90;;;;;;5021669;23;20237;-94
2023/02/02 09:27:02;;;;;;;17.05;2.60;;;10.50;99.90;;;;;;4997756;23;20623;-93
2023/02/02 09:29:05;;;;;;;22.08;12.00;;;10.40;99.90;;;;;;5021630;23;20174;-93
2023/02/02 09:31:07;;;;;;;14.35;3.83;;;10.30;99.90;;;;;;4997736;23;20156;-93
2023/02/02 09:33:08;;;;;;;12.35;2.35;;;10.10;99.90;;;;;;5021352;23;20159;-93
2023/02/02 09:35:08;;;;;;;22.17;2.58;;;10.10;99.90;;;;;;5021402;23;20285;-93
2023/02/02 09:37:09;;;;;;;13.90;2.28;;;10.30;99.90;;;;;;5021810;23;20166;-93
2023/02/02 09:39:11;;;;;;;12.50;2.10;;;10.50;99.90;;;;;;4997991;23;20179;-94
2023/02/02 09:41:37;;;;;;;11.82;2.90;;;10.70;99.90;;;;;;5021825;23;20180;-94
2023/02/02 09:43:54;;;;;;;14.88;2.17;;;10.60;99.90;;;;;;4997863;23;20631;-93
2023/02/02 09:46:04;;;;;;;15.82;2.67;;;10.50;99.90;;;;;;5021570;23;20161;-93
2023/02/02 09:48:19;;;;;;;17.42;2.45;;;10.50;99.90;;;;;;5021350;23;20178;-93
2023/02/02 09:50:35;;;;;;;14.02;2.55;;;10.60;99.90;;;;;;5021392;23;20162;-92
2023/02/02 09:52:46;;;;;;;12.68;1.70;;;10.70;99.90;;;;;;4998102;23;20646;-93
2023/02/02 09:54:51;;;;;;;16.60;2.10;;;10.70;99.90;;;;;;4997893;23;20155;-93
2023/02/02 09:56:56;;;;;;;23.17;2.28;;;10.70;99.90;;;;;;5021337;23;20238;-94
2023/02/02 09:58:59;;;;;;;16.50;2.50;;;10.50;99.90;;;;;;5021426;23;20171;-92
2023/02/02 10:01:36;;;;;;;11.88;2.50;;;10.60;99.90;;;;;;5022351;23;20250;-95
2023/02/02 10:03:39;;;;;;;14.18;1.85;;;10.70;99.90;;;;;;4954055;23;20175;-93
2023/02/02 10:05:54;;;;;;;16.05;3.03;;;10.90;99.90;;;;;;5021441;23;20234;-93
2023/02/02 10:08:00;;;;;;;15.32;2.13;;;10.80;99.90;;;;;;5021232;23;20238;-93
2023/02/02 10:10:13;;;;;;;14.35;2.35;;;10.90;99.90;;;;;;5021560;23;20190;-93
2023/02/02 10:12:45;;;;;;;10.95;1.40;;;11.00;99.90;;;;;;5021163;23;20167;-94
2023/02/02 10:14:59;;;;;;;15.40;1.90;;;11.10;99.90;;;;;;4997437;23;20151;-94
2023/02/02 10:17:21;;;;;;;7.47;1.77;;;11.00;99.90;;;;;;5021531;23;20163;-94
2023/02/02 10:19:27;;;;;;;9.43;2.08;;;11.00;99.90;;;;;;5021682;23;20190;-95
2023/02/02 10:21:53;;;;;;;13.75;3.65;;;11.20;99.90;;;;;;5023105;23;20214;-92
2023/02/02 10:23:56;;;;;;;17.83;2.85;;;11.30;99.90;;;;;;5023530;23;20238;-94
2023/02/02 10:26:23;;;;;;;14.20;3.25;;;11.20;99.90;;;;;;5025780;23;20154;-95
2023/02/02 10:28:38;;;;;;;17.75;2.97;;;11.20;99.90;;;;;;5019893;23;20270;-94
2023/02/02 10:30:54;;;;;;;15.02;2.92;;;11.10;99.90;;;;;;5021209;23;20154;-94
2023/02/02 10:33:05;;;;;;;17.20;3.47;;;11.10;99.90;;;;;;5021259;23;20210;-94
2023/02/02 10:35:19;;;;;;;11.77;2.72;;;11.10;99.90;;;;;;5023945;23;20154;-96
2023/02/02 10:37:26;;;;;;;14.35;3.67;;;11.20;99.90;;;;;;5023578;23;20591;-94
2023/02/02 10:39:42;;;;;;;12.90;3.38;;;10.90;99.90;;;;;;5000264;23;20194;-93
2023/02/02 10:41:46;;;;;;;19.67;3.50;;;10.80;99.90;;;;;;5021876;23;20159;-94
2023/02/02 10:44:11;;;;;;;17.67;3.10;;;10.80;99.90;;;;;;5022163;23;20238;-94
2023/02/02 10:46:29;;;;;;;14.75;2.90;;;10.70;99.90;;;;;;5022503;23;20177;-94
2023/02/02 10:48:34;;;;;;;20.73;3.22;;;10.60;99.90;;;;;;5021123;23;20541;-94
2023/02/02 10:50:35;;;;;;;18.63;2.75;;;10.80;99.90;;;;;;5020859;23;20162;-94
2023/02/02 10:52:37;;;;;;;16.02;2.83;;;10.90;99.90;;;;;;5022766;23;20163;-94
2023/02/02 10:54:58;;;;;;;14.48;2.10;;;10.60;99.90;;;;;;5029681;23;20150;-96
2023/02/02 10:57:02;;;;;;;15.93;3.20;;;10.70;99.90;;;;;;5027511;23;20158;-94
2023/02/02 10:59:32;;;;;;;20.33;2.42;;;10.60;99.90;;;;;;5030996;23;20206;-96
2023/02/02 11:01:33;;;;;;;13.52;2.70;;;10.70;99.90;;;;;;5025456;23;20159;-96
2023/02/02 11:03:36;;;;;;;12.00;2.03;;;11.10;99.90;;;;;;5028808;23;20227;-96
2023/02/02 11:07:56;;;;;;;13.93;1.92;;;11.20;99.90;;;;;;5044789;23;20169;-94
2023/02/02 11:09:57;;;;;;;10.07;1.77;;;11.50;99.90;;;;;;4998153;23;20194;-95
2023/02/02 11:12:08;;;;;;;13.05;1.92;;;11.20;99.90;;;;;;5044737;23;20151;-94
2023/02/02 11:14:09;;;;;;;15.70;2.08;;;11.20;99.90;;;;;;5022015;23;20162;-94
2023/02/02 11:16:15;;;;;;;11.27;1.90;;;11.20;99.90;;;;;;5021608;23;20159;-94
2023/02/02 11:18:29;;;;;;;9.77;1.85;;;11.30;99.90;;;;;;5021357;23;20178;-94
2023/02/02 11:20:37;;;;;;;16.35;2.50;;;11.10;99.90;;;;;;5021038;23;20193;-95
2023/02/02 11:22:39;;;;;;;10.15;1.80;;;11.30;99.90;;;;;;5020927;23;20158;-93
2023/02/02 11:24:48;;;;;;;11.57;1.88;;;11.50;99.90;;;;;;4997037;23;20156;-93
2023/02/02 11:27:03;;;;;;;12.75;2.20;;;11.60;99.90;;;;;;5021620;23;20162;-95
2023/02/02 11:29:04;;;;;;;13.88;1.80;;;12.00;99.90;;;;;;5023180;23;20615;-94
2023/02/02 11:31:05;;;;;;;20.83;2.45;;;11.90;99.90;;;;;;5028825;23;20155;-94
2023/02/02 11:33:27;;;;;;;10.23;1.90;;;11.90;99.90;;;;;;5001551;23;20167;-94
2023/02/02 11:35:28;;;;;;;14.55;5.10;;;12.10;99.90;;;;;;5001705;23;20568;-93
2023/02/02 11:37:33;;;;;;;10.50;2.72;;;12.00;99.90;;;;;;5022477;23;20164;-94
2023/02/02 11:39:34;;;;;;;17.13;3.28;;;12.10;99.90;;;;;;5023984;23;20199;-93
2023/02/02 11:41:34;;;;;;;13.45;2.17;;;12.00;99.90;;;;;;5023875;23;20480;-94
2023/02/02 11:43:40;;;;;;;16.48;3.47;;;11.90;99.90;;;;;;5033667;23;20158;-93
2023/02/02 11:45:44;;;;;;;12.65;2.13;;;12.00;99.90;;;;;;5041715;23;20159;-94
2023/02/02 11:47:45;;;;;;;11.27;1.95;;;12.10;99.90;;;;;;5026857;23;20217;-96
2023/02/02 11:49:47;;;;;;;14.10;1.90;;;12.10;99.90;;;;;;5026526;23;20166;-94
2023/02/02 11:52:03;;;;;;;12.20;2.67;;;12.30;99.90;;;;;;5026679;23;20170;-94
2023/02/02 11:54:21;;;;;;;10.63;2.22;;;12.20;99.90;;;;;;5027016;23;20630;-94
2023/02/02 11:56:25;;;;;;;7.78;2.83;;;12.20;99.90;;;;;;5028380;23;20155;-94
2023/02/02 11:58:45;;;;;;;14.27;3.88;;;12.30;99.90;;;;;;5022384;23;20250;-95
2023/02/02 12:00:54;;;;;;;16.77;6.72;;;12.30;99.90;;;;;;5022425;23;20199;-93
2023/02/02 12:02:57;;;;;;;14.65;2.25;;;12.40;99.90;;;;;;5046101;23;20161;-94
2023/02/02 12:05:09;;;;;;;16.58;5.18;;;12.50;99.90;;;;;;4998321;23;20156;-94
2023/02/02 12:07:24;;;;;;;21.75;10.15;;;12.40;99.90;;;;;;5022255;23;20610;-94
2023/02/02 12:09:26;;;;;;;19.38;3.33;;;12.10;99.90;;;;;;5022309;23;20166;-94
2023/02/02 12:11:49;;;;;;;38.83;16.42;;;12.20;99.90;;;;;;5022363;23;20155;-93
2023/02/02 12:14:14;;;;;;;7.07;2.33;;;12.20;99.90;;;;;;5023132;23;20184;-93
2023/02/02 12:16:27;;;;;;;10.90;1.50;;;12.20;99.90;;;;;;4998266;23;20161;-94
2023/02/02 12:18:37;;;;;;;10.50;2.00;;;12.00;99.90;;;;;;5022508;23;20257;-94
2023/02/02 12:21:15;;;;;;;8.80;1.80;;;11.80;99.90;;;;;;4998344;23;20251;-94
2023/02/02 12:23:21;;;;;;;11.63;2.13;;;12.00;99.90;;;;;;5022868;23;20186;-94
2023/02/02 12:25:34;;;;;;;15.55;1.77;;;12.10;99.90;;;;;;5023337;23;20159;-94
2023/02/02 12:27:55;;;;;;;8.45;1.80;;;12.10;99.90;;;;;;5021685;23;20158;-94
2023/02/02 12:30:15;;;;;;;14.65;1.50;;;11.90;99.90;;;;;;5022448;23;20262;-94
2023/02/02 12:32:21;;;;;;;12.90;1.73;;;11.90;99.90;;;;;;5022372;23;20163;-94
2023/02/02 12:34:31;;;;;;;12.65;1.40;;;11.90;99.90;;;;;;5022293;23;20610;-94
2023/02/02 12:36:42;;;;;;;9.07;1.80;;;12.00;99.90;;;;;;5000354;23;20152;-93
2023/02/02 12:38:59;;;;;;;6.40;1.70;;;12.20;99.90;;;;;;5023342;23;20189;-94
2023/02/02 12:41:11;;;;;;;10.63;1.50;;;12.00;99.90;;;;;;5023475;23;20178;-93
2023/02/02 12:43:45;;;;;;;10.18;1.55;;;11.80;99.90;;;;;;5022330;23;20209;-94
2023/02/02 12:46:04;;;;;;;14.40;1.70;;;11.60;99.90;;;;;;4954953;23;20192;-94
2023/02/02 12:48:27;;;;;;;14.07;2.42;;;11.70;99.90;;;;;;5045632;23;20181;-94
2023/02/02 12:50:53;;;;;;;10.95;1.33;;;11.80;99.90;;;;;;4998347;23;20238;-95
2023/02/02 12:52:56;;;;;;;10.65;1.73;;;11.90;99.90;;;;;;5021878;23;20164;-95
2023/02/02 12:55:42;;;;;;;12.70;2.17;;;12.00;99.90;;;;;;5021984;23;20159;-95
2023/02/02 12:58:18;;;;;;;12.35;1.40;;;12.10;99.90;;;;;;5021710;23;20730;-94
2023/02/02 13:00:36;;;;;;;12.15;5.57;;;12.10;99.90;;;;;;5022984;23;20198;-95
2023/02/02 13:03:06;;;;;;;6.38;1.55;;;12.30;99.90;;;;;;5021797;23;20162;-94
2023/02/02 13:05:38;;;;;;;11.75;2.03;;;12.40;99.90;;;;;;5021743;23;20155;-93
2023/02/02 13:07:46;;;;;;;15.75;4.35;;;12.50;99.90;;;;;;5022256;23;20158;-93